Kezdőlap
METAR-TAF:

METAR-TAF

Repülőterek :

Brenner Field

Falls City, Nebraska, Amerikai Egyesült Államok

földrajzi szélesség: 40-04-44N, földrajzi hosszúság: 095-35-31W, magasság: 300 m

Jelenlegi meteorológiai megfigyelések

A jelentés 43 perccel ezelõtt készült, 00:53 UTC
Északi szél 8 kt széllökések: 19 kt
Hőmérséklet 12°C
Páratartalom 100%
Légköri nyomás 1003 hPa
Látótávolság: 8.0 km
Borult 900 lábon
enyhe esõ, Párásság

METAR: KFNB 260053Z AUTO 36008G19KT 5SM -RA BR OVC009 12/12 A2962 RMK AO2 CIG 006V013 SLP028 P0001 T01220122

Idő: 20:36 (01:36 UTC)


TAF: hiányzik

Meteorológiai megfigyelések és előrejelzések több, mint 4000 repülőtéren (METAR és TAF jelentéseket).

A térképen piros és sárga pontok jelzik az elérhető meteorológiai állomásokat.

Mozgassa az egeret a pont fölött, hogy megjelenjen az állomás neve.

Azután kattintson az időjárási megfigyelések és előrejelzések megtekintéséhez.

A térkép megváltoztatása: kattintson a fekete keresztel jelölt zöld gombra ráközelítéshez, a vonallal jelölt zöld gombra távolításhoz, vagy a zöld nyilakra a szomszédos térképek eléréséhez.


METAR-TAF: